Whitehall, Montana
Current Conditions -  °F | °C
As of 6:53 AM on Friday 31 Oct 2014 (Local Time) from KBTM Reporting Station
Clear Clear  
Wind Chill: 31°   Ceiling: Unl
Heat Index: 31°   Visibility: 10mi
Dew Point: 27°   Wind: 0mph
Humidity: 85%   Direction: NA
Pressure: 29.96"   Gusts: NA
Location:  45.87°N, 112.1°W
Report Text: KBTM 311253Z AUTO 00000KT 10SM CLR M01/M03 A2996 RMK AO2 SLP145 T10061028
Loading
Personal Weather Stations






























Interactive Weather Map
Tropical Storm Tracking
New forecast layout! Learn more

10-Day Weather Forecast

Advertisements
Track Severe Weather on mobile